createdAt,value
2022-07-31T00:00:55.702Z,21.45
2022-07-31T00:01:55.678Z,21.43
2022-07-31T00:02:55.656Z,21.42
2022-07-31T00:03:55.732Z,21.40
2022-07-31T00:04:55.647Z,21.40
2022-07-31T00:05:55.632Z,21.38
2022-07-31T00:06:55.635Z,21.36
2022-07-31T00:07:55.614Z,21.36
2022-07-31T00:08:55.586Z,21.34
2022-07-31T00:09:55.565Z,21.31
2022-07-31T00:10:55.588Z,21.33
2022-07-31T00:11:55.521Z,21.31
2022-07-31T00:12:55.530Z,21.28
2022-07-31T00:13:57.526Z,21.27
2022-07-31T00:14:55.483Z,21.26
2022-07-31T00:15:55.526Z,21.24
2022-07-31T00:16:55.461Z,21.22
2022-07-31T00:17:55.451Z,21.22
2022-07-31T00:18:55.469Z,21.21
2022-07-31T00:19:55.441Z,21.21
2022-07-31T00:20:55.437Z,21.19
2022-07-31T00:21:55.424Z,21.21
2022-07-31T00:22:55.417Z,21.18
2022-07-31T00:23:55.392Z,21.16
2022-07-31T00:24:55.363Z,21.16
2022-07-31T00:25:55.351Z,21.15
2022-07-31T00:26:55.377Z,21.16
2022-07-31T00:27:55.339Z,21.16
2022-07-31T00:28:55.325Z,21.15
2022-07-31T00:29:55.298Z,21.13
2022-07-31T00:30:55.305Z,21.13
2022-07-31T00:31:55.288Z,21.13
2022-07-31T00:32:55.273Z,21.12
2022-07-31T00:33:55.263Z,21.13
2022-07-31T00:34:55.244Z,21.12
2022-07-31T00:35:55.241Z,21.13
2022-07-31T00:36:55.212Z,21.11
2022-07-31T00:38:24.719Z,21.11
2022-07-31T00:38:56.194Z,21.09
2022-07-31T00:39:55.173Z,21.09
2022-07-31T00:40:55.152Z,21.09
2022-07-31T00:41:55.188Z,21.08
2022-07-31T00:42:55.127Z,21.06
2022-07-31T00:43:55.133Z,21.05
2022-07-31T00:44:55.125Z,21.03
2022-07-31T00:45:58.903Z,21.03
2022-07-31T00:46:55.103Z,21.01
2022-07-31T00:47:55.894Z,21.00
2022-07-31T00:48:55.225Z,20.97
2022-07-31T00:49:55.039Z,20.96
2022-07-31T00:50:55.025Z,20.97
2022-07-31T00:51:55.041Z,20.96
2022-07-31T00:52:55.013Z,20.96
2022-07-31T00:53:55.011Z,20.94
2022-07-31T00:54:54.980Z,20.94
2022-07-31T00:55:54.993Z,20.93
2022-07-31T00:56:54.974Z,20.93
2022-07-31T00:57:54.944Z,20.93
2022-07-31T00:58:54.945Z,20.90
2022-07-31T00:59:54.918Z,20.90
2022-07-31T01:00:54.955Z,20.90
2022-07-31T01:01:54.911Z,20.88
2022-07-31T01:02:54.890Z,20.88
2022-07-31T01:03:54.876Z,20.88
2022-07-31T01:04:54.849Z,20.85
2022-07-31T01:05:54.838Z,20.87
2022-07-31T01:06:54.848Z,20.85
2022-07-31T01:07:54.813Z,20.85
2022-07-31T01:08:54.815Z,20.87
2022-07-31T01:09:54.810Z,20.83
2022-07-31T01:10:54.789Z,20.85
2022-07-31T01:11:54.799Z,20.85
2022-07-31T01:12:54.759Z,20.83
2022-07-31T01:13:54.740Z,20.83
2022-07-31T01:14:54.730Z,20.82
2022-07-31T01:15:54.698Z,20.82
2022-07-31T01:16:54.723Z,20.81
2022-07-31T01:17:54.670Z,20.79
2022-07-31T01:18:54.660Z,20.79
2022-07-31T01:19:54.664Z,20.76
2022-07-31T01:20:54.649Z,20.76
2022-07-31T01:21:54.651Z,20.76
2022-07-31T01:22:54.619Z,20.75
2022-07-31T01:23:55.171Z,20.75
2022-07-31T01:24:54.600Z,20.72
2022-07-31T01:25:54.593Z,20.71
2022-07-31T01:26:54.586Z,20.71
2022-07-31T01:27:54.562Z,20.69
2022-07-31T01:28:54.550Z,20.68
2022-07-31T01:29:54.544Z,20.68
2022-07-31T01:31:05.305Z,20.66
2022-07-31T01:31:55.521Z,20.64
2022-07-31T01:32:54.479Z,20.64
2022-07-31T01:33:54.482Z,20.64
2022-07-31T01:34:54.482Z,20.63
2022-07-31T01:35:54.462Z,20.61
2022-07-31T01:36:54.463Z,20.63
2022-07-31T01:37:54.450Z,20.61
2022-07-31T01:38:54.410Z,20.61
2022-07-31T01:39:54.391Z,20.60
2022-07-31T01:40:54.392Z,20.58
2022-07-31T01:41:54.391Z,20.60
2022-07-31T01:42:54.373Z,20.61
2022-07-31T01:43:54.349Z,20.61
2022-07-31T01:44:54.342Z,20.61
2022-07-31T01:45:54.309Z,20.63
2022-07-31T01:46:54.342Z,20.60
2022-07-31T01:47:54.289Z,20.61
2022-07-31T01:48:54.372Z,20.63
2022-07-31T01:49:54.278Z,20.64
2022-07-31T01:50:54.266Z,20.64
2022-07-31T01:51:54.890Z,20.64
2022-07-31T01:52:55.240Z,20.66
2022-07-31T01:53:54.232Z,20.66
2022-07-31T01:54:54.198Z,20.66
2022-07-31T01:56:02.874Z,20.64
2022-07-31T01:56:55.191Z,20.66
2022-07-31T01:57:54.187Z,20.64
2022-07-31T01:58:54.172Z,20.64
2022-07-31T01:59:54.770Z,20.64
2022-07-31T02:00:54.174Z,20.64
2022-07-31T02:01:54.143Z,20.64
2022-07-31T02:02:54.512Z,20.63
2022-07-31T02:03:56.367Z,20.64
2022-07-31T02:04:54.093Z,20.61
2022-07-31T02:05:54.062Z,20.61
2022-07-31T02:06:54.082Z,20.60
2022-07-31T02:07:54.051Z,20.60
2022-07-31T02:08:54.038Z,20.57
2022-07-31T02:09:58.485Z,20.56
2022-07-31T02:10:55.008Z,20.56
2022-07-31T02:11:54.941Z,20.53
2022-07-31T02:12:53.990Z,20.54
2022-07-31T02:13:53.983Z,20.53
2022-07-31T02:14:53.964Z,20.53
2022-07-31T02:15:53.938Z,20.51
2022-07-31T02:16:53.959Z,20.51
2022-07-31T02:17:53.908Z,20.50
2022-07-31T02:18:53.908Z,20.51
2022-07-31T02:19:59.977Z,20.50
2022-07-31T02:20:54.890Z,20.51
2022-07-31T02:21:53.882Z,20.51
2022-07-31T02:22:53.872Z,20.51
2022-07-31T02:23:53.841Z,20.51
2022-07-31T02:24:53.840Z,20.50
2022-07-31T02:25:53.819Z,20.50
2022-07-31T02:26:53.821Z,20.51
2022-07-31T02:27:58.013Z,20.48
2022-07-31T02:28:54.797Z,20.50
2022-07-31T02:29:53.760Z,20.50
2022-07-31T02:30:53.747Z,20.46
2022-07-31T02:32:02.057Z,20.44
2022-07-31T02:32:54.735Z,20.46
2022-07-31T02:33:53.725Z,20.46
2022-07-31T02:34:53.702Z,20.48
2022-07-31T02:35:53.688Z,20.46
2022-07-31T02:36:53.702Z,20.48
2022-07-31T02:37:53.675Z,20.46
2022-07-31T02:38:53.672Z,20.44
2022-07-31T02:39:53.647Z,20.46
2022-07-31T02:40:53.640Z,20.46
2022-07-31T02:41:53.622Z,20.46
2022-07-31T02:42:53.610Z,20.46
2022-07-31T02:43:53.602Z,20.44
2022-07-31T02:44:53.577Z,20.48
2022-07-31T02:45:53.556Z,20.48
2022-07-31T02:46:53.560Z,20.48
2022-07-31T02:47:53.549Z,20.50
2022-07-31T02:48:53.572Z,20.50
2022-07-31T02:49:53.522Z,20.51
2022-07-31T02:50:53.496Z,20.51
2022-07-31T02:51:53.480Z,20.51
2022-07-31T02:52:53.488Z,20.51
2022-07-31T02:53:53.459Z,20.51
2022-07-31T02:54:53.469Z,20.50
2022-07-31T02:55:53.449Z,20.50
2022-07-31T02:56:53.456Z,20.50
2022-07-31T02:57:53.445Z,20.48
2022-07-31T02:58:53.412Z,20.48
2022-07-31T02:59:53.378Z,20.51
2022-07-31T03:00:53.453Z,20.46
2022-07-31T03:01:53.359Z,20.46
2022-07-31T03:02:53.376Z,20.48
2022-07-31T03:03:53.336Z,20.48
2022-07-31T03:04:53.328Z,20.48
2022-07-31T03:05:53.319Z,20.48
2022-07-31T03:06:53.309Z,20.50
2022-07-31T03:07:53.321Z,20.50
2022-07-31T03:08:53.282Z,20.50
2022-07-31T03:09:53.258Z,20.50
2022-07-31T03:10:53.247Z,20.51
2022-07-31T03:11:53.241Z,20.51
2022-07-31T03:12:53.219Z,20.50
2022-07-31T03:13:53.241Z,20.50
2022-07-31T03:14:53.211Z,20.50
2022-07-31T03:15:53.180Z,20.51
2022-07-31T03:16:53.204Z,20.51
2022-07-31T03:17:53.158Z,20.53
2022-07-31T03:18:53.167Z,20.54
2022-07-31T03:19:53.128Z,20.54
2022-07-31T03:20:53.127Z,20.56
2022-07-31T03:21:53.110Z,20.56
2022-07-31T03:22:53.212Z,20.56
2022-07-31T03:23:53.100Z,20.56
2022-07-31T03:24:53.066Z,20.54
2022-07-31T03:25:53.070Z,20.56
2022-07-31T03:26:53.060Z,20.56
2022-07-31T03:27:56.696Z,20.54
2022-07-31T03:28:53.050Z,20.54
2022-07-31T03:29:53.036Z,20.56
2022-07-31T03:30:56.112Z,20.57
2022-07-31T03:31:52.986Z,20.54
2022-07-31T03:32:52.980Z,20.54
2022-07-31T03:33:52.978Z,20.56
2022-07-31T03:34:52.960Z,20.56
2022-07-31T03:35:52.935Z,20.57
2022-07-31T03:36:52.949Z,20.57
2022-07-31T03:37:52.922Z,20.58
2022-07-31T03:38:52.920Z,20.57
2022-07-31T03:39:52.876Z,20.57
2022-07-31T03:40:52.891Z,20.57
2022-07-31T03:41:52.859Z,20.57
2022-07-31T03:42:52.838Z,20.57
2022-07-31T03:43:52.859Z,20.56
2022-07-31T03:44:52.879Z,20.56
2022-07-31T03:45:52.820Z,20.54
2022-07-31T03:46:52.812Z,20.56
2022-07-31T03:47:52.802Z,20.54
2022-07-31T03:48:53.338Z,20.56
2022-07-31T03:49:52.747Z,20.54
2022-07-31T03:50:52.736Z,20.54
2022-07-31T03:51:52.741Z,20.57
2022-07-31T03:52:52.716Z,20.57
2022-07-31T03:53:52.724Z,20.57
2022-07-31T03:54:52.699Z,20.58
2022-07-31T03:55:52.676Z,20.61
2022-07-31T03:56:52.701Z,20.61
2022-07-31T03:57:52.647Z,20.60
2022-07-31T03:58:52.929Z,20.60
2022-07-31T03:59:52.649Z,20.58
2022-07-31T04:00:52.632Z,20.58
2022-07-31T04:01:57.317Z,20.58
2022-07-31T04:02:53.628Z,20.57
2022-07-31T04:03:52.585Z,20.60
2022-07-31T04:04:52.576Z,20.56
2022-07-31T04:05:52.559Z,20.56
2022-07-31T04:06:52.558Z,20.57
2022-07-31T04:07:52.529Z,20.56
2022-07-31T04:08:52.538Z,20.54
2022-07-31T04:09:52.502Z,20.56
2022-07-31T04:10:52.512Z,20.56
2022-07-31T04:11:52.485Z,20.56
2022-07-31T04:12:52.468Z,20.57
2022-07-31T04:13:52.475Z,20.54
2022-07-31T04:14:52.448Z,20.56
2022-07-31T04:15:52.431Z,20.54
2022-07-31T04:16:52.433Z,20.54
2022-07-31T04:17:52.396Z,20.57
2022-07-31T04:18:52.412Z,20.56
2022-07-31T04:19:52.388Z,20.56
2022-07-31T04:20:52.370Z,20.56
2022-07-31T04:21:52.343Z,20.56
2022-07-31T04:22:52.331Z,20.57
2022-07-31T04:23:53.268Z,20.60
2022-07-31T04:24:52.327Z,20.60
2022-07-31T04:25:52.307Z,20.61
2022-07-31T04:26:52.291Z,20.63
2022-07-31T04:27:59.873Z,20.63
2022-07-31T04:28:52.266Z,20.66
2022-07-31T04:29:53.994Z,20.66
2022-07-31T04:30:52.255Z,20.66
2022-07-31T04:31:52.225Z,20.66
2022-07-31T04:32:52.200Z,20.68
2022-07-31T04:33:56.304Z,20.68
2022-07-31T04:34:52.217Z,20.71
2022-07-31T04:35:52.162Z,20.69
2022-07-31T04:36:52.175Z,20.71
2022-07-31T04:37:52.155Z,20.72
2022-07-31T04:38:52.143Z,20.73
2022-07-31T04:39:52.163Z,20.72
2022-07-31T04:40:52.108Z,20.72
2022-07-31T04:41:52.092Z,20.73
2022-07-31T04:42:52.099Z,20.73
2022-07-31T04:43:52.076Z,20.73
2022-07-31T04:44:52.058Z,20.73
2022-07-31T04:45:52.063Z,20.75
2022-07-31T04:46:52.024Z,20.76
2022-07-31T04:47:52.035Z,20.78
2022-07-31T04:48:52.064Z,20.76
2022-07-31T04:49:52.002Z,20.78
2022-07-31T04:50:51.986Z,20.79
2022-07-31T04:51:51.961Z,20.79
2022-07-31T04:52:51.951Z,20.81
2022-07-31T04:53:51.955Z,20.79
2022-07-31T04:54:51.946Z,20.81
2022-07-31T04:55:51.922Z,20.83
2022-07-31T04:56:51.914Z,20.83
2022-07-31T04:57:51.904Z,20.85
2022-07-31T04:58:51.872Z,20.87
2022-07-31T05:00:00.302Z,20.88
2022-07-31T05:00:52.863Z,20.88
2022-07-31T05:01:51.871Z,20.90
2022-07-31T05:02:51.844Z,20.90
2022-07-31T05:03:51.828Z,20.93
2022-07-31T05:04:52.528Z,20.94
2022-07-31T05:05:52.788Z,20.94
2022-07-31T05:06:51.771Z,20.98
2022-07-31T05:07:51.782Z,20.98
2022-07-31T05:08:51.754Z,21.00
2022-07-31T05:09:51.760Z,21.00
2022-07-31T05:10:51.747Z,21.01
2022-07-31T05:11:51.723Z,21.01
2022-07-31T05:12:51.692Z,21.03
2022-07-31T05:13:51.680Z,21.03
2022-07-31T05:14:51.693Z,21.06
2022-07-31T05:15:51.673Z,21.06
2022-07-31T05:16:51.651Z,21.11
2022-07-31T05:17:51.644Z,21.11
2022-07-31T05:18:51.637Z,21.11
2022-07-31T05:19:51.620Z,21.13
2022-07-31T05:20:51.604Z,21.13
2022-07-31T05:21:53.727Z,21.15
2022-07-31T05:22:51.603Z,21.15
2022-07-31T05:23:51.558Z,21.13
2022-07-31T05:24:51.566Z,21.13
2022-07-31T05:25:51.554Z,21.15
2022-07-31T05:26:51.534Z,21.15
2022-07-31T05:27:51.510Z,21.16
2022-07-31T05:28:55.195Z,21.18
2022-07-31T05:29:52.500Z,21.19
2022-07-31T05:30:51.487Z,21.21
2022-07-31T05:32:00.091Z,21.22
2022-07-31T05:32:52.466Z,21.22
2022-07-31T05:33:51.445Z,21.21
2022-07-31T05:34:51.443Z,21.21
2022-07-31T05:35:51.453Z,21.21
2022-07-31T05:36:51.406Z,21.22
2022-07-31T05:37:51.383Z,21.21
2022-07-31T05:38:51.371Z,21.21
2022-07-31T05:39:51.386Z,21.21
2022-07-31T05:40:51.353Z,21.22
2022-07-31T05:41:51.343Z,21.21
2022-07-31T05:42:51.324Z,21.21
2022-07-31T05:43:51.323Z,21.19
2022-07-31T05:44:51.301Z,21.21
2022-07-31T05:45:51.333Z,21.21
2022-07-31T05:47:25.469Z,21.21
2022-07-31T05:48:26.470Z,21.19
2022-07-31T05:49:25.520Z,21.21
2022-07-31T05:50:25.438Z,21.21
2022-07-31T05:51:25.433Z,21.22
2022-07-31T05:52:25.502Z,21.24
2022-07-31T05:53:25.409Z,21.28
2022-07-31T05:54:25.392Z,21.30
2022-07-31T05:55:25.385Z,21.33
2022-07-31T05:56:25.365Z,21.36
2022-07-31T05:57:32.820Z,21.38
2022-07-31T05:58:26.321Z,21.42
2022-07-31T05:59:25.342Z,21.40
2022-07-31T06:00:25.331Z,21.43
2022-07-31T06:01:25.376Z,21.46
2022-07-31T06:02:25.285Z,21.45
2022-07-31T06:03:25.292Z,21.46
2022-07-31T06:04:25.269Z,21.51
2022-07-31T06:05:25.262Z,21.53
2022-07-31T06:06:25.244Z,21.56
2022-07-31T06:07:25.246Z,21.56
2022-07-31T06:08:25.214Z,21.59
2022-07-31T06:09:25.261Z,21.59
2022-07-31T06:10:25.191Z,21.61
2022-07-31T06:11:25.180Z,21.63
2022-07-31T06:12:25.171Z,21.66
2022-07-31T06:13:25.158Z,21.66
2022-07-31T06:14:25.159Z,21.67
2022-07-31T06:15:25.133Z,21.66
2022-07-31T06:16:25.145Z,21.66
2022-07-31T06:17:40.317Z,21.64
2022-07-31T06:18:26.079Z,21.66
2022-07-31T06:19:25.110Z,21.68
2022-07-31T06:20:25.050Z,21.67
2022-07-31T06:21:55.022Z,21.70
2022-07-31T06:22:55.039Z,21.71
2022-07-31T06:23:55.003Z,21.75
2022-07-31T06:24:54.987Z,21.75
2022-07-31T06:25:54.978Z,21.77
2022-07-31T06:26:54.956Z,21.77
2022-07-31T06:27:59.921Z,21.79
2022-07-31T06:28:55.932Z,21.81
2022-07-31T06:29:54.932Z,21.79
2022-07-31T06:30:54.911Z,21.75
2022-07-31T06:31:54.902Z,21.74
2022-07-31T06:32:54.870Z,21.74
2022-07-31T06:33:54.872Z,21.73
2022-07-31T06:34:54.890Z,21.73
2022-07-31T06:35:54.861Z,21.71
2022-07-31T06:36:54.827Z,21.73
2022-07-31T06:37:54.819Z,21.74
2022-07-31T06:38:54.812Z,21.73
2022-07-31T06:39:56.391Z,21.71
2022-07-31T06:40:54.790Z,21.68
2022-07-31T06:41:54.774Z,21.70
2022-07-31T06:42:54.771Z,21.71
2022-07-31T06:43:54.729Z,21.73
2022-07-31T06:44:54.738Z,21.74
2022-07-31T06:45:54.730Z,21.74
2022-07-31T06:46:54.714Z,21.73
2022-07-31T06:47:54.687Z,21.74
2022-07-31T06:48:54.834Z,21.77
2022-07-31T06:49:54.666Z,21.79
2022-07-31T06:51:14.414Z,21.74
2022-07-31T06:51:55.669Z,21.74
2022-07-31T06:52:54.619Z,21.73
2022-07-31T06:53:54.630Z,21.74
2022-07-31T06:54:54.598Z,21.73
2022-07-31T06:55:54.616Z,21.75
2022-07-31T06:56:54.581Z,21.75
2022-07-31T06:57:54.548Z,21.77
2022-07-31T06:58:54.584Z,21.74
2022-07-31T06:59:54.580Z,21.73
2022-07-31T07:00:54.581Z,21.68
2022-07-31T07:01:54.510Z,21.67
2022-07-31T07:02:54.517Z,21.66
2022-07-31T07:03:54.506Z,21.66
2022-07-31T07:04:56.442Z,21.64
2022-07-31T07:05:55.463Z,21.63
2022-07-31T07:06:54.449Z,21.66
2022-07-31T07:07:54.436Z,21.66
2022-07-31T07:08:54.421Z,21.68
2022-07-31T07:09:54.407Z,21.70
2022-07-31T07:10:54.401Z,21.73
2022-07-31T07:11:55.020Z,21.73
2022-07-31T07:12:54.405Z,21.71
2022-07-31T07:13:54.379Z,21.70
2022-07-31T07:14:54.359Z,21.73
2022-07-31T07:15:54.361Z,21.77
2022-07-31T07:16:54.330Z,21.77
2022-07-31T07:17:54.299Z,21.77
2022-07-31T07:18:54.297Z,21.75
2022-07-31T07:19:55.019Z,21.77
2022-07-31T07:20:54.268Z,21.79
2022-07-31T07:21:54.244Z,21.82
2022-07-31T07:22:54.236Z,21.85
2022-07-31T07:23:54.260Z,21.89
2022-07-31T07:24:54.230Z,21.90
2022-07-31T07:25:54.187Z,21.89
2022-07-31T07:26:54.180Z,21.89
2022-07-31T07:27:54.176Z,21.89
2022-07-31T07:28:54.162Z,21.91
2022-07-31T07:29:54.159Z,21.93
2022-07-31T07:30:54.139Z,21.96
2022-07-31T07:31:54.117Z,21.98
2022-07-31T07:32:54.112Z,21.99
2022-07-31T07:33:54.126Z,21.99
2022-07-31T07:34:59.470Z,21.98
2022-07-31T07:35:55.077Z,21.96
2022-07-31T07:36:54.274Z,21.93
2022-07-31T07:37:54.796Z,21.96
2022-07-31T07:38:55.134Z,21.96
2022-07-31T07:39:54.028Z,21.99
2022-07-31T07:40:54.016Z,21.99
2022-07-31T07:41:53.977Z,22.01
2022-07-31T07:42:53.979Z,22.04
2022-07-31T07:43:53.967Z,22.02
2022-07-31T07:44:53.954Z,21.94
2022-07-31T07:45:53.949Z,21.94
2022-07-31T07:46:53.914Z,21.94
2022-07-31T07:48:06.339Z,21.94
2022-07-31T07:48:54.973Z,21.96
2022-07-31T07:49:53.884Z,22.01
2022-07-31T07:50:53.855Z,21.98
2022-07-31T07:52:09.563Z,21.94
2022-07-31T07:52:54.840Z,21.98
2022-07-31T07:53:53.827Z,22.01
2022-07-31T07:54:53.835Z,22.05
2022-07-31T07:55:53.806Z,22.05
2022-07-31T07:56:53.846Z,22.04
2022-07-31T07:57:53.766Z,22.05
2022-07-31T07:58:53.756Z,22.05
2022-07-31T07:59:53.781Z,22.06
2022-07-31T08:00:53.832Z,22.04
2022-07-31T08:01:53.738Z,22.04
2022-07-31T08:03:47.539Z,22.06
2022-07-31T08:03:54.704Z,22.11
2022-07-31T08:04:53.694Z,22.19
2022-07-31T08:05:53.676Z,22.26
2022-07-31T08:06:53.655Z,22.30
2022-07-31T08:07:53.659Z,22.36
2022-07-31T08:08:53.680Z,22.42
2022-07-31T08:09:53.637Z,22.51
2022-07-31T08:10:53.698Z,22.60
2022-07-31T08:11:53.619Z,22.66
2022-07-31T08:12:53.599Z,22.75
2022-07-31T08:13:53.569Z,22.78
2022-07-31T08:14:53.606Z,22.81
2022-07-31T08:15:53.763Z,22.81
2022-07-31T08:16:53.534Z,22.84
2022-07-31T08:17:53.504Z,22.86
2022-07-31T08:18:53.504Z,22.93
2022-07-31T08:19:53.496Z,22.93
2022-07-31T08:20:53.472Z,22.91
2022-07-31T08:21:53.455Z,22.91
2022-07-31T08:22:53.457Z,22.99
2022-07-31T08:23:53.463Z,23.06
2022-07-31T08:24:53.449Z,23.09
2022-07-31T08:25:53.403Z,23.12
2022-07-31T08:26:53.404Z,23.11
2022-07-31T08:27:54.082Z,23.11
2022-07-31T08:28:53.388Z,23.11
2022-07-31T08:29:53.383Z,23.11
2022-07-31T08:30:53.367Z,23.11
2022-07-31T08:31:53.333Z,23.12
2022-07-31T08:32:53.325Z,23.11
2022-07-31T08:33:53.315Z,23.07
2022-07-31T08:34:53.321Z,23.01
2022-07-31T08:35:53.314Z,23.01
2022-07-31T08:36:53.263Z,23.04
2022-07-31T08:38:03.300Z,23.01
2022-07-31T08:38:54.256Z,23.01
2022-07-31T08:39:53.234Z,22.97
2022-07-31T08:40:53.218Z,22.99
2022-07-31T08:41:53.213Z,22.99
2022-07-31T08:42:53.207Z,23.01
2022-07-31T08:44:00.348Z,23.06
2022-07-31T08:44:54.187Z,23.07
2022-07-31T08:45:53.182Z,23.11
2022-07-31T08:46:53.136Z,23.12
2022-07-31T08:47:53.123Z,23.12
2022-07-31T08:48:53.165Z,23.12
2022-07-31T08:49:53.128Z,23.03
2022-07-31T08:50:54.021Z,23.01
2022-07-31T08:51:53.085Z,23.00
2022-07-31T08:52:53.053Z,23.00
2022-07-31T08:53:53.053Z,23.01
2022-07-31T08:54:53.057Z,23.03
2022-07-31T08:55:55.031Z,23.04
2022-07-31T08:56:53.008Z,23.07
2022-07-31T08:57:53.033Z,23.09
2022-07-31T08:58:53.000Z,23.16
2022-07-31T08:59:52.993Z,23.22
2022-07-31T09:00:53.019Z,23.31
2022-07-31T09:01:52.954Z,23.37
2022-07-31T09:02:52.945Z,23.41
2022-07-31T09:03:52.948Z,23.42
2022-07-31T09:04:53.134Z,23.44
2022-07-31T09:05:52.915Z,23.34
2022-07-31T09:06:52.907Z,23.34
2022-07-31T09:07:52.895Z,23.37
2022-07-31T09:08:52.861Z,23.38
2022-07-31T09:09:52.866Z,23.42
2022-07-31T09:10:52.837Z,23.42
2022-07-31T09:11:52.840Z,23.42
2022-07-31T09:12:52.793Z,23.41
2022-07-31T09:14:02.801Z,23.39
2022-07-31T09:14:53.787Z,23.42
2022-07-31T09:15:52.798Z,23.42
2022-07-31T09:16:52.757Z,23.42
2022-07-31T09:17:53.880Z,23.47
2022-07-31T09:18:52.752Z,23.53
2022-07-31T09:19:54.999Z,23.60
2022-07-31T09:20:52.698Z,23.67
2022-07-31T09:21:52.707Z,23.74
2022-07-31T09:22:52.682Z,23.81
2022-07-31T09:23:52.652Z,23.90
2022-07-31T09:24:52.705Z,23.96
2022-07-31T09:25:52.645Z,24.04
2022-07-31T09:26:52.615Z,24.12
2022-07-31T09:27:52.605Z,24.15
2022-07-31T09:28:52.592Z,24.24
2022-07-31T09:29:52.611Z,24.36
2022-07-31T09:30:56.554Z,24.39
2022-07-31T09:31:52.618Z,24.42
2022-07-31T09:32:52.678Z,24.49
2022-07-31T09:33:52.559Z,24.56
2022-07-31T09:34:52.652Z,24.55
2022-07-31T09:35:52.515Z,24.56
2022-07-31T09:36:52.513Z,24.60
2022-07-31T09:37:52.492Z,24.61
2022-07-31T09:38:52.483Z,24.63
2022-07-31T09:39:52.819Z,24.59
2022-07-31T09:40:57.164Z,24.60
2022-07-31T09:41:57.874Z,24.61
2022-07-31T09:42:55.303Z,24.53
2022-07-31T09:43:52.404Z,24.51
2022-07-31T09:44:52.393Z,24.48
2022-07-31T09:45:52.381Z,24.46
2022-07-31T09:46:52.373Z,24.45
2022-07-31T09:47:52.405Z,24.46
2022-07-31T09:48:56.672Z,24.49
2022-07-31T09:49:53.354Z,24.52
2022-07-31T09:50:52.353Z,24.46
2022-07-31T09:51:52.305Z,24.44
2022-07-31T09:52:52.295Z,24.48
2022-07-31T09:53:52.294Z,24.48
2022-07-31T09:54:52.279Z,24.41
2022-07-31T09:55:52.263Z,24.33
2022-07-31T09:56:52.259Z,24.30
2022-07-31T09:57:52.234Z,24.30
2022-07-31T09:58:52.302Z,24.24
2022-07-31T09:59:52.203Z,24.23
2022-07-31T10:00:52.372Z,24.27
2022-07-31T10:01:52.172Z,24.30
2022-07-31T10:02:52.188Z,24.33
2022-07-31T10:03:52.209Z,24.41
2022-07-31T10:04:52.174Z,24.51
2022-07-31T10:05:52.158Z,24.56
2022-07-31T10:06:52.128Z,24.61
2022-07-31T10:07:52.113Z,24.59
2022-07-31T10:08:52.083Z,24.55
2022-07-31T10:09:52.104Z,24.52
2022-07-31T10:10:52.200Z,24.52
2022-07-31T10:11:52.171Z,24.60
2022-07-31T10:12:52.099Z,24.64
2022-07-31T10:13:52.081Z,24.66
2022-07-31T10:14:52.037Z,24.71
2022-07-31T10:15:52.071Z,24.74
2022-07-31T10:16:52.020Z,24.83
2022-07-31T10:17:51.970Z,24.86
2022-07-31T10:18:51.995Z,24.97
2022-07-31T10:19:51.986Z,25.01
2022-07-31T10:20:51.965Z,24.99
2022-07-31T10:21:51.911Z,25.02
2022-07-31T10:22:51.913Z,25.07
2022-07-31T10:23:51.905Z,25.09
2022-07-31T10:24:52.387Z,25.05
2022-07-31T10:25:53.787Z,25.08
2022-07-31T10:27:00.384Z,25.04
2022-07-31T10:27:52.906Z,24.99
2022-07-31T10:28:51.822Z,24.98
2022-07-31T10:29:51.865Z,24.97
2022-07-31T10:30:51.829Z,24.94
2022-07-31T10:31:51.859Z,24.94
2022-07-31T10:32:51.794Z,24.97
2022-07-31T10:33:51.876Z,25.02
2022-07-31T10:34:51.765Z,25.05
2022-07-31T10:35:55.784Z,25.08
2022-07-31T10:36:51.732Z,25.07
2022-07-31T10:37:59.302Z,25.07
2022-07-31T10:38:51.713Z,25.12
2022-07-31T10:39:51.708Z,25.17
2022-07-31T10:40:54.384Z,25.23
2022-07-31T10:41:51.681Z,25.27
2022-07-31T10:42:51.683Z,25.29
2022-07-31T10:43:51.640Z,25.34
2022-07-31T10:44:51.653Z,25.41
2022-07-31T10:45:51.653Z,25.42
2022-07-31T10:46:51.620Z,25.48
2022-07-31T10:47:51.619Z,25.51
2022-07-31T10:48:51.631Z,25.56
2022-07-31T10:49:51.592Z,25.60
2022-07-31T10:50:51.633Z,25.66
2022-07-31T10:51:51.559Z,25.66
2022-07-31T10:52:51.551Z,25.76
2022-07-31T10:53:55.390Z,25.83
2022-07-31T10:54:51.529Z,25.96
2022-07-31T10:55:51.524Z,25.97
2022-07-31T10:56:51.496Z,26.00
2022-07-31T10:57:56.924Z,26.00
2022-07-31T10:58:52.470Z,26.06
2022-07-31T10:59:51.460Z,26.16
2022-07-31T11:00:51.453Z,26.24
2022-07-31T11:01:53.039Z,26.29
2022-07-31T11:02:51.421Z,26.21
2022-07-31T11:03:51.408Z,26.21
2022-07-31T11:04:54.150Z,26.21
2022-07-31T11:06:02.322Z,26.16
2022-07-31T11:06:52.397Z,26.08
2022-07-31T11:07:51.345Z,26.01
2022-07-31T11:08:51.343Z,26.00
2022-07-31T11:09:51.881Z,25.98
2022-07-31T11:10:51.331Z,25.97
2022-07-31T11:11:51.298Z,25.96
2022-07-31T11:12:51.287Z,25.81
2022-07-31T11:13:51.280Z,25.67
2022-07-31T11:14:51.273Z,25.61
2022-07-31T11:15:51.275Z,25.49
2022-07-31T11:16:51.241Z,25.41
2022-07-31T11:18:21.040Z,25.30
2022-07-31T11:18:52.194Z,25.27
2022-07-31T11:19:51.187Z,25.24
2022-07-31T11:20:51.188Z,25.23
2022-07-31T11:21:51.178Z,25.27
2022-07-31T11:22:51.160Z,25.31
2022-07-31T11:24:02.432Z,25.41
2022-07-31T11:24:52.136Z,25.45
2022-07-31T11:25:51.138Z,25.51
2022-07-31T11:26:51.111Z,25.57
2022-07-31T11:27:51.100Z,25.61
2022-07-31T11:28:51.127Z,25.67
2022-07-31T11:30:00.450Z,25.67
2022-07-31T11:30:52.078Z,25.61
2022-07-31T11:31:51.038Z,25.53
2022-07-31T11:32:51.048Z,25.53
2022-07-31T11:33:51.027Z,25.56
2022-07-31T11:34:51.000Z,25.59
2022-07-31T11:35:50.987Z,25.64
2022-07-31T11:36:51.779Z,25.67
2022-07-31T11:37:56.807Z,25.64
2022-07-31T11:38:51.941Z,25.60
2022-07-31T11:39:51.294Z,25.60
2022-07-31T11:40:50.927Z,25.57
2022-07-31T11:41:50.917Z,25.59
2022-07-31T11:43:10.287Z,25.61
2022-07-31T11:43:51.889Z,25.60
2022-07-31T11:44:50.880Z,25.60
2022-07-31T11:45:50.878Z,25.61
2022-07-31T11:46:50.849Z,25.69
2022-07-31T11:48:12.723Z,25.72
2022-07-31T11:48:51.844Z,25.79
2022-07-31T11:49:50.860Z,25.85
2022-07-31T11:50:50.820Z,25.89
2022-07-31T11:51:50.791Z,25.91
2022-07-31T11:52:50.789Z,25.89
2022-07-31T11:53:56.981Z,25.82
2022-07-31T11:54:51.753Z,25.76
2022-07-31T11:55:50.759Z,25.72
2022-07-31T11:56:50.718Z,25.75
2022-07-31T11:57:51.222Z,25.72
2022-07-31T11:58:50.687Z,25.71
2022-07-31T11:59:50.701Z,25.74
2022-07-31T12:00:50.740Z,25.81
2022-07-31T12:01:50.671Z,25.93
2022-07-31T12:02:50.683Z,26.03
2022-07-31T12:03:50.627Z,26.08
2022-07-31T12:04:50.615Z,26.11
2022-07-31T12:05:50.608Z,26.16
2022-07-31T12:06:50.587Z,26.17
2022-07-31T12:07:50.589Z,26.20
2022-07-31T12:08:50.571Z,26.11
2022-07-31T12:10:02.509Z,26.03
2022-07-31T12:10:51.558Z,26.00
2022-07-31T12:11:50.527Z,25.97
2022-07-31T12:12:50.516Z,25.96
2022-07-31T12:13:50.517Z,25.93
2022-07-31T12:14:50.501Z,25.93
2022-07-31T12:15:50.486Z,25.93
2022-07-31T12:16:50.464Z,25.93
2022-07-31T12:17:50.462Z,25.97
2022-07-31T12:18:50.436Z,25.98
2022-07-31T12:19:52.857Z,26.04
2022-07-31T12:20:50.442Z,26.09
2022-07-31T12:21:50.410Z,26.11
2022-07-31T12:22:50.385Z,26.12
2022-07-31T12:23:50.367Z,26.13
2022-07-31T12:28:23.505Z,25.89
2022-07-31T12:29:19.596Z,25.85
2022-07-31T12:30:19.612Z,25.85
2022-07-31T12:31:22.330Z,25.81
2022-07-31T12:32:19.583Z,25.81
2022-07-31T12:33:19.587Z,25.83
2022-07-31T12:34:19.556Z,25.89
2022-07-31T12:35:19.551Z,25.91
2022-07-31T12:36:19.541Z,25.93
2022-07-31T12:37:19.496Z,25.94
2022-07-31T12:38:38.186Z,25.90
2022-07-31T12:39:20.482Z,25.89
2022-07-31T12:40:19.482Z,25.89
2022-07-31T12:41:19.474Z,25.89
2022-07-31T12:42:19.459Z,25.86
2022-07-31T12:43:20.434Z,25.82
2022-07-31T12:44:22.442Z,25.78
2022-07-31T12:45:20.615Z,25.75
2022-07-31T12:46:19.427Z,25.75
2022-07-31T12:47:19.390Z,25.76
2022-07-31T12:48:19.379Z,25.79
2022-07-31T12:49:19.396Z,25.81
2022-07-31T12:50:19.359Z,25.85
2022-07-31T12:51:19.357Z,25.90
2022-07-31T12:52:20.340Z,25.93
2022-07-31T12:53:19.296Z,26.00
2022-07-31T12:54:19.309Z,26.06
2022-07-31T12:55:19.291Z,26.13
2022-07-31T12:56:19.276Z,26.21
2022-07-31T12:57:19.254Z,26.21